createdAt,value
2022-11-06T00:01:57.918Z,100728.21
2022-11-06T00:06:26.936Z,100728.30
2022-11-06T00:10:34.310Z,100722.77
2022-11-06T00:14:42.222Z,100723.64
2022-11-06T00:18:49.968Z,100721.41
2022-11-06T00:22:57.645Z,100724.87
2022-11-06T00:27:05.989Z,100726.05
2022-11-06T00:31:15.208Z,100728.58
2022-11-06T00:35:23.153Z,100731.02
2022-11-06T00:39:30.689Z,100737.27
2022-11-06T00:43:39.076Z,100734.05
2022-11-06T00:47:47.182Z,100738.64
2022-11-06T00:51:55.199Z,100739.69
2022-11-06T00:56:09.489Z,100738.80
2022-11-06T01:00:20.636Z,100737.64
2022-11-06T01:04:28.698Z,100743.70
2022-11-06T01:08:36.219Z,100742.21
2022-11-06T01:12:44.404Z,100742.06
2022-11-06T01:16:53.148Z,100744.14
2022-11-06T01:21:00.741Z,100740.36
2022-11-06T01:25:10.633Z,100738.31
2022-11-06T01:29:20.423Z,100742.27
2022-11-06T01:33:28.443Z,100738.52
2022-11-06T01:37:36.619Z,100739.26
2022-11-06T01:41:46.013Z,100744.50
2022-11-06T01:45:55.022Z,100741.83
2022-11-06T01:50:08.792Z,100739.04
2022-11-06T01:54:19.310Z,100734.67
2022-11-06T01:58:29.873Z,100736.00
2022-11-06T02:02:37.989Z,100734.11
2022-11-06T02:06:47.171Z,100740.39
2022-11-06T02:10:56.020Z,100744.41
2022-11-06T02:15:08.691Z,100740.85
2022-11-06T02:19:32.118Z,100742.70
2022-11-06T02:23:56.378Z,100740.82
2022-11-06T02:28:08.547Z,100735.90
2022-11-06T02:32:23.304Z,100734.11
2022-11-06T02:36:34.721Z,100733.34
2022-11-06T02:40:45.569Z,100735.77
2022-11-06T02:44:55.258Z,100737.23
2022-11-06T02:49:08.571Z,100740.48
2022-11-06T02:53:19.955Z,100737.88
2022-11-06T02:57:30.067Z,100735.71
2022-11-06T03:01:41.245Z,100737.73
2022-11-06T03:05:53.831Z,100741.41
2022-11-06T03:10:02.633Z,100734.12
2022-11-06T03:14:15.171Z,100732.83
2022-11-06T03:18:29.885Z,100724.77
2022-11-06T03:22:45.109Z,100729.78
2022-11-06T03:26:54.711Z,100728.58
2022-11-06T03:31:07.353Z,100729.59
2022-11-06T03:35:19.871Z,100722.02
2022-11-06T03:39:31.276Z,100719.71
2022-11-06T03:43:40.391Z,100727.98
2022-11-06T03:47:50.237Z,100730.69
2022-11-06T03:52:01.424Z,100724.01
2022-11-06T03:56:13.840Z,100725.92
2022-11-06T04:00:23.059Z,100724.52
2022-11-06T04:04:34.026Z,100731.58
2022-11-06T04:08:59.339Z,100732.15
2022-11-06T04:13:24.336Z,100722.59
2022-11-06T04:17:33.382Z,100725.96
2022-11-06T04:21:49.716Z,100732.95
2022-11-06T04:26:23.486Z,100729.20
2022-11-06T04:30:34.184Z,100729.19
2022-11-06T04:34:45.802Z,100727.10
2022-11-06T04:38:59.578Z,100725.09
2022-11-06T04:43:10.139Z,100724.69
2022-11-06T04:47:20.185Z,100726.11
2022-11-06T04:51:32.375Z,100724.81
2022-11-06T04:55:52.442Z,100731.95
2022-11-06T05:00:00.351Z,100731.62
2022-11-06T05:04:08.443Z,100732.21
2022-11-06T05:08:18.726Z,100725.29
2022-11-06T05:12:26.660Z,100728.81
2022-11-06T05:16:34.639Z,100724.05
2022-11-06T05:20:41.894Z,100717.11
2022-11-06T05:24:50.615Z,100713.55
2022-11-06T05:28:58.338Z,100708.95
2022-11-06T05:33:06.233Z,100705.42
2022-11-06T05:37:13.930Z,100710.14
2022-11-06T05:41:22.362Z,100715.21
2022-11-06T05:45:30.493Z,100713.59
2022-11-06T05:49:37.950Z,100718.95
2022-11-06T05:53:45.807Z,100722.62
2022-11-06T05:57:53.545Z,100719.98
2022-11-06T06:02:01.482Z,100722.20
2022-11-06T06:06:10.555Z,100725.07
2022-11-06T06:10:18.067Z,100724.55
2022-11-06T06:14:25.815Z,100727.63
2022-11-06T06:18:33.717Z,100726.66
2022-11-06T06:22:41.407Z,100721.90
2022-11-06T06:26:49.984Z,100721.23
2022-11-06T06:31:01.485Z,100726.33
2022-11-06T06:35:11.026Z,100733.52
2022-11-06T06:39:19.892Z,100741.67
2022-11-06T06:43:27.548Z,100751.37
2022-11-06T06:47:35.100Z,100753.92
2022-11-06T06:51:43.012Z,100757.23
2022-11-06T06:55:50.363Z,100756.05
2022-11-06T06:59:57.558Z,100757.88
2022-11-06T07:04:05.573Z,100762.61
2022-11-06T07:08:13.585Z,100765.86
2022-11-06T07:12:21.495Z,100764.38
2022-11-06T07:16:30.299Z,100755.52
2022-11-06T07:20:40.002Z,100747.05
2022-11-06T07:24:47.357Z,100739.66
2022-11-06T07:28:54.886Z,100745.16
2022-11-06T07:33:04.999Z,100742.91
2022-11-06T07:37:12.849Z,100742.65
2022-11-06T07:41:20.696Z,100739.75
2022-11-06T07:45:29.481Z,100729.66
2022-11-06T07:49:37.875Z,100733.48
2022-11-06T07:53:45.569Z,100732.64
2022-11-06T07:57:53.137Z,100729.45
2022-11-06T08:02:00.902Z,100733.30
2022-11-06T08:06:09.663Z,100731.18
2022-11-06T08:10:18.383Z,100727.63
2022-11-06T08:14:25.914Z,100729.95
2022-11-06T08:18:33.970Z,100733.98
2022-11-06T08:22:41.645Z,100733.84
2022-11-06T08:26:48.964Z,100732.85
2022-11-06T08:30:56.798Z,100734.25
2022-11-06T08:35:04.152Z,100735.66
2022-11-06T08:39:11.947Z,100726.79
2022-11-06T08:43:19.609Z,100723.80
2022-11-06T08:47:27.078Z,100725.04
2022-11-06T08:51:34.969Z,100725.77
2022-11-06T08:55:42.546Z,100722.16
2022-11-06T08:59:50.382Z,100723.73
2022-11-06T09:03:57.838Z,100724.87
2022-11-06T09:08:06.539Z,100732.61
2022-11-06T09:12:14.651Z,100731.86
2022-11-06T09:16:22.947Z,100727.64
2022-11-06T09:20:30.588Z,100724.68
2022-11-06T09:25:02.088Z,100720.38
2022-11-06T09:29:07.024Z,100720.52
2022-11-06T09:33:16.435Z,100719.54
2022-11-06T09:37:25.781Z,100713.77
2022-11-06T09:41:38.220Z,100713.43
2022-11-06T09:45:48.859Z,100713.09
2022-11-06T09:50:00.860Z,100711.54
2022-11-06T09:54:12.411Z,100715.31
2022-11-06T09:58:24.150Z,100710.08
2022-11-06T10:02:35.604Z,100708.16
2022-11-06T10:06:43.169Z,100706.23
2022-11-06T10:10:58.785Z,100698.13
2022-11-06T10:15:18.363Z,100694.08
2022-11-06T10:19:32.258Z,100696.52
2022-11-06T10:23:47.127Z,100696.35
2022-11-06T10:28:03.202Z,100690.24
2022-11-06T10:32:43.808Z,100682.59
2022-11-06T10:36:54.558Z,100674.45
2022-11-06T10:41:03.350Z,100670.27
2022-11-06T10:45:14.966Z,100660.80
2022-11-06T10:49:30.330Z,100646.55
2022-11-06T10:53:42.333Z,100637.70
2022-11-06T10:57:54.856Z,100627.42
2022-11-06T11:02:03.787Z,100620.22
2022-11-06T11:06:13.946Z,100614.52
2022-11-06T11:10:33.391Z,100605.48
2022-11-06T11:14:41.367Z,100600.63
2022-11-06T11:18:50.289Z,100594.27
2022-11-06T11:23:09.209Z,100589.05
2022-11-06T11:27:18.567Z,100574.80
2022-11-06T11:31:31.386Z,100566.70
2022-11-06T11:35:39.522Z,100559.96
2022-11-06T11:39:48.065Z,100549.09
2022-11-06T11:44:11.027Z,100540.86
2022-11-06T11:48:18.844Z,100533.61
2022-11-06T11:52:26.519Z,100529.16
2022-11-06T11:57:02.798Z,100526.27
2022-11-06T12:01:03.594Z,100518.15
2022-11-06T12:05:14.639Z,100517.77
2022-11-06T12:09:23.218Z,100513.47
2022-11-06T12:13:31.562Z,100508.80
2022-11-06T12:17:42.555Z,100506.59
2022-11-06T12:21:55.477Z,100506.13
2022-11-06T12:26:08.031Z,100502.44
2022-11-06T12:30:17.905Z,100504.82
2022-11-06T12:34:30.079Z,100499.76
2022-11-06T12:38:43.531Z,100490.11
2022-11-06T12:42:59.351Z,100478.42
2022-11-06T12:47:13.161Z,100475.20
2022-11-06T12:51:27.163Z,100470.83
2022-11-06T12:55:36.997Z,100464.21
2022-11-06T12:59:52.623Z,100467.11
2022-11-06T13:04:21.693Z,100462.64
2022-11-06T13:08:37.348Z,100460.86
2022-11-06T13:12:48.600Z,100457.96
2022-11-06T13:17:01.819Z,100454.77
2022-11-06T13:21:12.629Z,100445.98
2022-11-06T13:25:24.650Z,100443.86
2022-11-06T13:29:32.941Z,100442.32
2022-11-06T13:33:43.680Z,100436.14
2022-11-06T13:37:53.016Z,100431.30
2022-11-06T13:42:02.484Z,100432.75
2022-11-06T13:46:16.618Z,100426.33
2022-11-06T13:50:32.030Z,100424.20
2022-11-06T13:54:59.512Z,100426.59
2022-11-06T13:59:27.431Z,100430.48
2022-11-06T14:04:20.435Z,100426.96
2022-11-06T14:08:31.046Z,100417.73
2022-11-06T14:12:38.726Z,100417.13
2022-11-06T14:16:48.224Z,100414.11
2022-11-06T14:21:44.217Z,100411.56
2022-11-06T14:26:03.302Z,100413.14
2022-11-06T14:31:10.334Z,100412.05
2022-11-06T14:35:51.955Z,100406.21
2022-11-06T14:40:12.394Z,100408.31
2022-11-06T14:44:44.463Z,100408.34
2022-11-06T14:48:53.761Z,100402.08
2022-11-06T14:53:03.898Z,100401.59
2022-11-06T14:57:14.727Z,100399.44
2022-11-06T15:01:29.888Z,100399.15
2022-11-06T15:05:42.223Z,100396.17
2022-11-06T15:09:51.136Z,100395.18
2022-11-06T15:14:04.564Z,100390.77
2022-11-06T15:18:19.693Z,100387.04
2022-11-06T15:22:37.062Z,100381.35
2022-11-06T15:26:48.963Z,100375.39
2022-11-06T15:31:02.549Z,100368.22
2022-11-06T15:35:17.004Z,100365.61
2022-11-06T15:39:31.278Z,100364.27
2022-11-06T15:43:40.049Z,100366.77
2022-11-06T15:47:58.571Z,100363.98
2022-11-06T15:52:09.915Z,100367.41
2022-11-06T15:56:19.122Z,100379.23
2022-11-06T16:00:27.449Z,100380.09
2022-11-06T16:04:35.420Z,100371.48
2022-11-06T16:08:44.203Z,100364.11
2022-11-06T16:12:53.855Z,100359.14
2022-11-06T16:17:12.593Z,100353.84
2022-11-06T16:21:22.643Z,100353.67
2022-11-06T16:25:30.131Z,100357.73
2022-11-06T16:29:38.671Z,100351.55
2022-11-06T16:33:56.515Z,100348.89
2022-11-06T16:38:41.575Z,100347.15
2022-11-06T16:43:03.850Z,100345.55
2022-11-06T16:47:17.638Z,100345.30
2022-11-06T16:51:34.748Z,100344.84
2022-11-06T16:55:42.959Z,100345.52
2022-11-06T17:00:00.330Z,100341.09
2022-11-06T17:04:11.261Z,100338.05
2022-11-06T17:08:28.301Z,100332.73
2022-11-06T17:12:36.064Z,100331.20
2022-11-06T17:16:51.360Z,100331.40
2022-11-06T17:21:01.733Z,100327.86
2022-11-06T17:25:13.211Z,100326.81
2022-11-06T17:29:22.375Z,100321.55
2022-11-06T17:33:31.067Z,100317.75
2022-11-06T17:37:39.030Z,100318.65
2022-11-06T17:41:46.608Z,100320.73
2022-11-06T17:45:53.999Z,100314.41
2022-11-06T17:50:04.154Z,100312.95
2022-11-06T17:54:12.644Z,100309.77
2022-11-06T17:58:20.037Z,100307.94
2022-11-06T18:02:48.079Z,100303.09
2022-11-06T18:06:56.955Z,100311.38
2022-11-06T18:11:04.406Z,100308.64
2022-11-06T18:15:13.212Z,100310.13
2022-11-06T18:19:22.922Z,100302.77
2022-11-06T18:23:30.843Z,100296.50
2022-11-06T18:27:39.207Z,100299.52
2022-11-06T18:31:47.073Z,100295.58
2022-11-06T18:35:55.244Z,100300.83
2022-11-06T18:40:06.376Z,100302.02
2022-11-06T18:44:18.405Z,100297.95
2022-11-06T18:48:25.918Z,100295.66
2022-11-06T18:52:56.358Z,100297.71
2022-11-06T18:57:03.504Z,100294.25
2022-11-06T19:01:13.427Z,100296.55
2022-11-06T19:05:21.180Z,100297.41
2022-11-06T19:09:31.086Z,100301.16
2022-11-06T19:13:44.804Z,100302.39
2022-11-06T19:17:56.698Z,100301.55
2022-11-06T19:22:04.545Z,100297.83
2022-11-06T19:26:30.745Z,100286.11
2022-11-06T19:30:40.148Z,100285.07
2022-11-06T19:34:48.124Z,100282.67
2022-11-06T19:38:57.709Z,100278.83
2022-11-06T19:43:07.405Z,100277.63
2022-11-06T19:47:16.591Z,100273.27
2022-11-06T19:51:25.050Z,100266.30
2022-11-06T19:55:32.582Z,100251.89
2022-11-06T19:59:40.242Z,100250.08
2022-11-06T20:03:47.870Z,100255.36
2022-11-06T20:07:55.654Z,100255.98
2022-11-06T20:12:03.639Z,100248.08
2022-11-06T20:16:13.819Z,100245.96
2022-11-06T20:20:22.277Z,100244.90
2022-11-06T20:24:30.135Z,100248.14
2022-11-06T20:28:37.898Z,100245.87
2022-11-06T20:32:45.869Z,100245.39
2022-11-06T20:36:54.358Z,100245.79
2022-11-06T20:41:02.695Z,100235.83
2022-11-06T20:45:12.864Z,100232.14
2022-11-06T20:49:21.698Z,100229.77
2022-11-06T20:53:29.681Z,100225.54
2022-11-06T20:57:37.289Z,100224.77
2022-11-06T21:01:45.064Z,100222.41
2022-11-06T21:05:52.910Z,100233.86
2022-11-06T21:10:02.842Z,100236.63
2022-11-06T21:14:15.383Z,100241.31
2022-11-06T21:18:27.124Z,100239.02
2022-11-06T21:22:35.504Z,100242.30
2022-11-06T21:26:43.912Z,100246.80
2022-11-06T21:30:51.586Z,100249.11
2022-11-06T21:35:01.660Z,100247.77
2022-11-06T21:39:12.580Z,100249.84
2022-11-06T21:43:20.573Z,100241.04
2022-11-06T21:47:30.989Z,100237.80
2022-11-06T21:51:40.273Z,100227.55
2022-11-06T21:55:59.866Z,100228.59
2022-11-06T22:00:14.074Z,100227.70
2022-11-06T22:04:23.804Z,100221.35
2022-11-06T22:08:38.744Z,100207.27
2022-11-06T22:12:46.721Z,100203.50
2022-11-06T22:16:56.204Z,100193.30
2022-11-06T22:21:13.023Z,100193.52
2022-11-06T22:25:21.769Z,100179.73
2022-11-06T22:29:30.181Z,100174.03
2022-11-06T22:33:39.502Z,100173.96
2022-11-06T22:37:48.400Z,100177.61
2022-11-06T22:41:58.689Z,100168.48
2022-11-06T22:46:09.275Z,100161.89
2022-11-06T22:50:17.109Z,100166.42
2022-11-06T22:54:24.460Z,100165.67
2022-11-06T22:58:32.088Z,100169.07
2022-11-06T23:02:39.802Z,100168.59
2022-11-06T23:06:48.206Z,100159.85
2022-11-06T23:10:57.176Z,100153.33
2022-11-06T23:15:06.537Z,100143.92
2022-11-06T23:19:16.172Z,100134.91
2022-11-06T23:23:23.852Z,100135.82
2022-11-06T23:27:31.521Z,100135.87
2022-11-06T23:31:41.181Z,100131.84
2022-11-06T23:35:49.173Z,100121.87
2022-11-06T23:39:56.778Z,100120.82
2022-11-06T23:44:25.890Z,100117.25
2022-11-06T23:48:34.460Z,100125.28
2022-11-06T23:52:42.862Z,100131.42
2022-11-06T23:56:50.992Z,100136.27
